Time;durP1;ratioP1;P1;durP2;ratioP2;P2;SDS_P1;SDS_P2;PMS_P1;PMS_P2;Temp;Humidity;BMP_temperature;BMP_pressure;BME280_temperature;BME280_humidity;BME280_pressure;Samples;Min_cycle;Max_cycle;Signal;HPM_P1;HPM_P2
2021/12/21 08:21:52;;;;;;;16.57;8.53;;;-1.90;99.90;;;;;;4851380;23;20490;-85
2021/12/21 08:24:19;;;;;;;15.90;7.97;;;-1.90;99.90;;;;;;5053172;28;20214;-84
2021/12/21 08:26:46;;;;;;;16.27;8.60;;;-1.90;99.90;;;;;;5054147;28;20202;-84
2021/12/21 08:29:13;;;;;;;12.23;8.00;;;-1.80;99.90;;;;;;5053664;28;20206;-84
2021/12/21 08:31:39;;;;;;;17.83;9.20;;;-1.90;99.90;;;;;;5051950;28;20214;-85
2021/12/21 08:34:06;;;;;;;18.73;9.07;;;-1.90;99.90;;;;;;5051324;28;20289;-83
2021/12/21 08:36:35;;;;;;;16.77;9.20;;;-1.80;99.90;;;;;;5029530;28;20215;-85
2021/12/21 08:39:04;;;;;;;18.83;8.47;;;-1.80;99.90;;;;;;5033821;28;20270;-84
2021/12/21 08:41:33;;;;;;;20.07;9.03;;;-1.80;99.90;;;;;;5033888;28;20201;-85
2021/12/21 08:44:00;;;;;;;14.77;9.27;;;-1.70;99.90;;;;;;5030848;28;20206;-84
2021/12/21 08:46:27;;;;;;;17.87;9.50;;;-1.70;99.90;;;;;;5052478;28;20194;-85
2021/12/21 08:48:53;;;;;;;18.53;10.20;;;-1.70;99.90;;;;;;5053115;28;20202;-85
2021/12/21 08:51:20;;;;;;;18.83;10.20;;;-1.70;99.90;;;;;;5052618;28;20197;-83
2021/12/21 08:53:47;;;;;;;15.67;9.00;;;-1.70;99.90;;;;;;5049990;28;20221;-83
2021/12/21 08:56:16;;;;;;;14.97;9.80;;;-1.70;99.90;;;;;;5052493;28;20209;-83
2021/12/21 08:58:43;;;;;;;12.80;8.70;;;-1.60;99.90;;;;;;5048200;28;20218;-84
2021/12/21 09:01:10;;;;;;;16.37;9.00;;;-1.60;99.90;;;;;;5037965;28;20213;-82
2021/12/21 09:03:38;;;;;;;14.40;9.37;;;-1.60;99.90;;;;;;5038067;28;20652;-84
2021/12/21 09:06:04;;;;;;;15.77;9.20;;;-1.60;99.90;;;;;;5037989;28;20614;-81
2021/12/21 09:08:32;;;;;;;19.47;9.90;;;-1.50;99.90;;;;;;5037406;28;20206;-79
2021/12/21 09:11:03;;;;;;;14.80;9.40;;;-1.50;99.90;;;;;;5029865;28;20214;-81
2021/12/21 09:13:32;;;;;;;17.37;9.47;;;-1.40;99.90;;;;;;5029779;28;20213;-81
2021/12/21 09:15:59;;;;;;;12.80;8.20;;;-1.40;99.90;;;;;;5049004;28;20206;-80
2021/12/21 09:18:26;;;;;;;18.17;9.27;;;-1.40;99.90;;;;;;5047653;28;20230;-82
2021/12/21 09:20:53;;;;;;;23.07;10.30;;;-1.30;99.90;;;;;;5039522;28;20210;-80
2021/12/21 09:23:20;;;;;;;16.40;8.17;;;-1.30;99.90;;;;;;5033056;28;20245;-83
2021/12/21 09:25:47;;;;;;;19.70;9.00;;;-1.20;99.90;;;;;;5029961;28;20808;-84
2021/12/21 09:28:13;;;;;;;16.13;8.37;;;-1.20;99.90;;;;;;5038837;28;20230;-83
2021/12/21 09:30:42;;;;;;;17.13;9.53;;;-1.20;99.90;;;;;;5032701;28;20590;-83
2021/12/21 09:33:08;;;;;;;15.53;8.77;;;-1.10;99.90;;;;;;5032793;28;20210;-84
2021/12/21 09:35:35;;;;;;;14.10;8.97;;;-1.10;99.90;;;;;;5032588;28;20207;-84
2021/12/21 09:38:02;;;;;;;13.87;8.33;;;-1.00;99.90;;;;;;5047916;28;20194;-85
2021/12/21 09:40:31;;;;;;;18.03;8.37;;;-1.00;99.90;;;;;;5032077;28;20276;-85
2021/12/21 09:42:59;;;;;;;14.77;7.87;;;-0.90;99.90;;;;;;5032246;28;20225;-85
2021/12/21 09:45:27;;;;;;;20.67;10.27;;;-0.90;99.90;;;;;;5038250;28;20209;-85
2021/12/21 09:47:55;;;;;;;31.00;14.70;;;-0.80;99.90;;;;;;5031816;28;20234;-82
2021/12/21 09:50:23;;;;;;;26.23;12.67;;;-0.80;99.90;;;;;;5032276;28;20205;-82
2021/12/21 09:52:50;;;;;;;25.33;11.20;;;-0.80;99.90;;;;;;5031665;28;20207;-83
2021/12/21 09:55:19;;;;;;;26.87;11.57;;;-0.70;99.90;;;;;;5032340;28;20209;-81
2021/12/21 09:57:46;;;;;;;23.53;12.50;;;-0.70;99.90;;;;;;5032519;28;20261;-85
2021/12/21 10:00:17;;;;;;;25.97;15.20;;;-0.60;99.90;;;;;;5049429;28;20202;-85
2021/12/21 10:02:44;;;;;;;26.50;15.83;;;-0.60;99.90;;;;;;5051129;28;20213;-82
2021/12/21 10:05:16;;;;;;;31.13;16.87;;;-0.60;99.90;;;;;;5047280;28;20198;-83
2021/12/21 10:07:43;;;;;;;28.57;16.43;;;-0.50;99.90;;;;;;5029901;28;20233;-82
2021/12/21 10:10:14;;;;;;;31.90;15.00;;;-0.50;99.90;;;;;;5030229;28;20194;-82
2021/12/21 10:12:44;;;;;;;25.13;13.67;;;-0.40;99.90;;;;;;5029528;28;20733;-82
2021/12/21 10:15:15;;;;;;;20.20;11.23;;;-0.40;99.90;;;;;;5029302;28;20202;-79
2021/12/21 10:17:49;;;;;;;20.47;11.37;;;-0.30;99.90;;;;;;5030270;28;20207;-81
2021/12/21 10:20:32;;;;;;;21.00;10.43;;;-0.30;99.90;;;;;;5027719;28;20222;-81
2021/12/21 10:22:59;;;;;;;19.40;9.70;;;-0.20;99.90;;;;;;5026741;28;20234;-79
2021/12/21 10:25:27;;;;;;;20.50;10.10;;;-0.10;99.90;;;;;;5027331;28;20626;-80
2021/12/21 10:27:53;;;;;;;15.70;9.03;;;-0.10;99.90;;;;;;5029418;28;20226;-81
2021/12/21 10:30:20;;;;;;;20.20;10.30;;;-0.10;99.90;;;;;;5045290;28;20222;-82
2021/12/21 10:32:52;;;;;;;17.77;9.43;;;0.00;99.90;;;;;;5047069;28;20198;-80
2021/12/21 10:35:29;;;;;;;18.73;8.73;;;0.10;99.90;;;;;;5031831;28;20246;-79
2021/12/21 10:37:56;;;;;;;21.60;9.33;;;0.10;99.90;;;;;;5026561;28;20201;-78
2021/12/21 10:40:26;;;;;;;20.63;9.80;;;0.20;99.90;;;;;;5026394;28;20195;-80
2021/12/21 10:42:56;;;;;;;15.50;8.70;;;0.30;99.90;;;;;;5026587;28;20954;-81
2021/12/21 10:45:29;;;;;;;18.57;8.57;;;0.40;99.90;;;;;;5038072;28;20213;-80
2021/12/21 10:47:56;;;;;;;20.07;8.90;;;0.40;99.90;;;;;;5046943;28;20214;-80
2021/12/21 10:50:26;;;;;;;15.13;8.67;;;0.50;99.90;;;;;;5046151;28;20202;-79
2021/12/21 10:52:57;;;;;;;19.73;8.80;;;0.60;99.90;;;;;;5035008;28;20214;-81
2021/12/21 10:55:29;;;;;;;15.03;8.30;;;0.70;99.90;;;;;;5027014;28;20685;-81
2021/12/21 10:58:05;;;;;;;17.40;8.23;;;0.70;99.90;;;;;;5025227;28;20206;-79
2021/12/21 11:00:32;;;;;;;15.13;8.37;;;0.80;99.90;;;;;;5028618;28;20198;-82
2021/12/21 11:02:59;;;;;;;14.60;7.63;;;0.90;99.90;;;;;;5049198;28;20217;-81
2021/12/21 11:05:28;;;;;;;19.27;8.33;;;0.90;99.90;;;;;;5047441;28;20209;-80
2021/12/21 11:07:59;;;;;;;16.37;8.27;;;1.00;99.90;;;;;;5048392;28;20303;-81
2021/12/21 11:10:30;;;;;;;12.63;6.80;;;1.00;99.90;;;;;;5037165;28;20202;-80
2021/12/21 11:13:00;;;;;;;15.20;7.00;;;1.10;99.90;;;;;;5029182;28;20271;-83
2021/12/21 11:15:29;;;;;;;14.30;7.07;;;1.10;99.90;;;;;;5028209;28;20246;-81
2021/12/21 11:17:57;;;;;;;11.13;6.33;;;1.20;99.90;;;;;;5028563;28;20289;-83
2021/12/21 11:20:27;;;;;;;16.17;6.40;;;1.20;99.90;;;;;;5028461;28;20199;-81
2021/12/21 11:22:55;;;;;;;12.73;7.40;;;1.30;99.90;;;;;;5029523;28;20319;-82
2021/12/21 11:25:23;;;;;;;14.60;7.70;;;1.40;99.90;;;;;;5028881;28;20202;-81
2021/12/21 11:27:51;;;;;;;14.57;6.50;;;1.40;99.90;;;;;;5029075;28;20230;-82
2021/12/21 11:30:23;;;;;;;14.87;7.03;;;1.50;99.90;;;;;;5029418;28;20515;-82
2021/12/21 11:32:52;;;;;;;22.63;7.57;;;1.70;99.90;;;;;;5029219;28;20232;-81
2021/12/21 11:38:10;;;;;;;15.33;7.37;;;1.80;99.90;;;;;;5041030;28;20324;-82
2021/12/21 11:40:39;;;;;;;15.30;6.70;;;1.90;99.90;;;;;;5049777;28;20232;-82
2021/12/21 11:43:17;;;;;;;11.40;6.33;;;1.90;99.90;;;;;;5043362;28;20333;-82
2021/12/21 11:45:52;;;;;;;12.33;6.17;;;2.00;99.90;;;;;;5045493;28;20205;-81
2021/12/21 11:48:32;;;;;;;12.90;6.43;;;2.10;99.90;;;;;;5046334;28;20252;-83
2021/12/21 11:51:06;;;;;;;15.00;7.00;;;2.10;99.90;;;;;;5052367;28;20217;-82
2021/12/21 11:53:35;;;;;;;13.43;5.90;;;2.10;99.90;;;;;;5048531;28;20610;-82
2021/12/21 11:56:02;;;;;;;10.93;5.80;;;2.20;99.90;;;;;;5052658;28;20490;-83
2021/12/21 11:58:32;;;;;;;10.53;5.30;;;2.20;99.90;;;;;;5052492;28;20209;-83
2021/12/21 12:01:01;;;;;;;9.83;5.40;;;2.30;99.90;;;;;;5048512;28;20209;-81
2021/12/21 12:03:30;;;;;;;10.30;5.60;;;2.30;99.90;;;;;;5031820;28;20859;-81
2021/12/21 12:06:00;;;;;;;10.43;5.13;;;2.30;99.90;;;;;;5032587;28;20209;-82
2021/12/21 12:08:28;;;;;;;9.60;5.40;;;2.40;99.90;;;;;;5030991;28;20222;-82
2021/12/21 12:11:00;;;;;;;10.20;5.53;;;2.40;99.90;;;;;;5033040;28;20221;-81
2021/12/21 12:13:31;;;;;;;12.93;5.67;;;2.40;99.90;;;;;;5030502;28;20187;-80
2021/12/21 12:16:00;;;;;;;10.90;5.93;;;2.40;99.90;;;;;;5038655;28;20236;-81
2021/12/21 12:18:34;;;;;;;10.40;6.03;;;2.50;99.90;;;;;;5050091;28;20205;-79
2021/12/21 12:21:12;;;;;;;12.30;5.90;;;2.50;99.90;;;;;;5044110;28;20206;-80
2021/12/21 12:23:52;;;;;;;10.33;5.50;;;2.50;99.90;;;;;;5029869;28;20245;-80
2021/12/21 12:26:27;;;;;;;13.13;6.30;;;2.50;99.90;;;;;;5030427;28;20213;-80
2021/12/21 12:28:55;;;;;;;8.20;5.40;;;2.50;99.90;;;;;;5029344;28;20524;-80
2021/12/21 12:31:46;;;;;;;9.87;6.20;;;2.50;99.90;;;;;;5029396;28;20202;-81
2021/12/21 12:34:23;;;;;;;13.87;6.80;;;2.50;99.90;;;;;;5028002;28;20202;-82
2021/12/21 12:36:51;;;;;;;10.90;6.43;;;2.50;99.90;;;;;;5029185;28;20217;-82
2021/12/21 12:39:29;;;;;;;11.30;6.83;;;2.50;99.90;;;;;;5040099;28;20750;-81
2021/12/21 12:42:03;;;;;;;13.47;6.47;;;2.50;99.90;;;;;;5034266;28;20205;-81
2021/12/21 12:44:30;;;;;;;11.73;6.90;;;2.50;99.90;;;;;;5037300;28;20970;-81
2021/12/21 12:47:00;;;;;;;13.43;7.13;;;2.50;99.90;;;;;;5019637;28;20460;-82
2021/12/21 12:49:29;;;;;;;10.27;6.37;;;2.60;99.90;;;;;;5037868;28;20230;-80
2021/12/21 12:52:11;;;;;;;11.30;6.37;;;2.60;99.90;;;;;;5039740;28;20198;-80
2021/12/21 12:54:51;;;;;;;12.53;6.90;;;2.60;99.90;;;;;;5047181;28;20213;-80
2021/12/21 12:57:34;;;;;;;16.57;7.50;;;2.60;99.90;;;;;;5028937;28;20212;-81
2021/12/21 13:00:14;;;;;;;11.43;6.77;;;2.60;99.90;;;;;;5029302;28;20610;-80
2021/12/21 13:02:52;;;;;;;13.23;6.33;;;2.60;99.90;;;;;;5029609;28;20203;-80
2021/12/21 13:05:20;;;;;;;9.23;6.30;;;2.50;99.90;;;;;;5029786;28;20206;-82
2021/12/21 13:07:47;;;;;;;13.53;7.50;;;2.50;99.90;;;;;;5029755;28;20198;-80
2021/12/21 13:10:13;;;;;;;13.03;7.20;;;2.60;99.90;;;;;;5045030;28;20208;-80
2021/12/21 13:12:42;;;;;;;10.50;6.50;;;2.60;99.90;;;;;;5042419;28;20525;-81
2021/12/21 13:15:09;;;;;;;11.77;6.27;;;2.50;99.90;;;;;;5032368;28;20210;-80
2021/12/21 13:17:41;;;;;;;11.80;6.97;;;2.60;99.90;;;;;;5040075;28;20210;-80
2021/12/21 13:20:09;;;;;;;12.20;6.27;;;2.60;99.90;;;;;;5048153;28;20209;-81
2021/12/21 13:22:36;;;;;;;14.40;6.67;;;2.60;99.90;;;;;;5024583;28;20250;-79
2021/12/21 13:25:04;;;;;;;12.57;6.33;;;2.60;99.90;;;;;;5022488;28;20203;-81
2021/12/21 13:27:31;;;;;;;10.47;6.47;;;2.60;99.90;;;;;;5019754;28;20642;-82
2021/12/21 13:30:05;;;;;;;9.77;6.30;;;2.60;99.90;;;;;;5008313;28;20639;-82
2021/12/21 13:32:34;;;;;;;11.93;6.87;;;2.60;99.90;;;;;;5012614;28;20308;-82
2021/12/21 13:35:02;;;;;;;10.27;5.47;;;2.60;99.90;;;;;;5028236;28;20224;-81
2021/12/21 13:37:30;;;;;;;12.90;6.30;;;2.60;99.90;;;;;;5026150;28;20780;-81
2021/12/21 13:40:01;;;;;;;10.93;5.30;;;2.60;99.90;;;;;;5027357;28;20611;-80
2021/12/21 13:42:30;;;;;;;9.70;5.87;;;2.60;99.90;;;;;;5027271;28;20210;-81
2021/12/21 13:45:01;;;;;;;9.70;5.70;;;2.60;99.90;;;;;;5019549;28;20207;-81
2021/12/21 13:47:29;;;;;;;10.40;5.80;;;2.60;99.90;;;;;;5008465;28;20610;-81
2021/12/21 13:50:04;;;;;;;9.20;5.67;;;2.60;99.90;;;;;;5008344;28;20223;-79
2021/12/21 13:52:35;;;;;;;16.37;6.33;;;2.60;99.90;;;;;;5012259;28;20209;-81
2021/12/21 13:55:03;;;;;;;10.90;5.97;;;2.60;99.90;;;;;;5027357;28;20272;-81
2021/12/21 13:57:32;;;;;;;14.20;6.53;;;2.70;99.90;;;;;;5027484;28;20199;-82
2021/12/21 14:00:07;;;;;;;13.83;6.50;;;2.60;99.90;;;;;;5019786;28;20664;-81
2021/12/21 14:02:36;;;;;;;12.97;5.43;;;2.70;99.90;;;;;;5007867;28;20268;-80
2021/12/21 14:05:05;;;;;;;9.93;6.70;;;2.70;99.90;;;;;;5009261;28;20944;-80
2021/12/21 14:07:36;;;;;;;8.63;5.80;;;2.70;99.90;;;;;;5007143;28;20203;-81
2021/12/21 14:10:10;;;;;;;11.30;6.73;;;2.80;99.90;;;;;;5007881;28;20259;-81
2021/12/21 14:12:37;;;;;;;12.23;5.97;;;2.80;99.90;;;;;;5008392;28;20215;-82
2021/12/21 14:15:07;;;;;;;14.80;7.40;;;2.80;99.90;;;;;;5007383;28;20619;-80
2021/12/21 14:17:34;;;;;;;17.00;7.83;;;2.80;99.90;;;;;;5007848;28;20210;-80
2021/12/21 14:20:04;;;;;;;15.43;7.10;;;2.80;99.90;;;;;;5008364;28;20202;-81
2021/12/21 14:22:31;;;;;;;11.53;6.03;;;2.80;99.90;;;;;;5014416;28;20930;-82
2021/12/21 14:24:58;;;;;;;14.20;8.23;;;2.70;99.90;;;;;;5028019;28;20198;-82
2021/12/21 14:27:30;;;;;;;13.53;7.27;;;2.70;99.90;;;;;;5027842;28;20210;-80
2021/12/21 14:30:09;;;;;;;13.03;7.43;;;2.70;99.90;;;;;;5027391;28;20328;-81
2021/12/21 14:33:06;;;;;;;12.63;6.97;;;2.60;99.90;;;;;;5027600;28;20293;-81
2021/12/21 14:35:40;;;;;;;13.37;7.10;;;2.50;99.90;;;;;;5027271;28;20206;-81
2021/12/21 14:38:13;;;;;;;14.57;7.07;;;2.50;99.90;;;;;;5028430;28;20202;-81
2021/12/21 14:40:43;;;;;;;13.10;8.37;;;2.50;99.90;;;;;;5027440;28;20289;-80
2021/12/21 14:43:23;;;;;;;14.10;8.87;;;2.50;99.90;;;;;;5026945;28;20492;-80
2021/12/21 14:45:52;;;;;;;19.83;8.60;;;2.50;99.90;;;;;;5027736;28;20237;-82
2021/12/21 14:48:21;;;;;;;18.30;9.03;;;2.50;99.90;;;;;;5027329;28;20777;-80
2021/12/21 14:50:54;;;;;;;16.80;9.47;;;2.60;99.90;;;;;;5027372;28;20205;-80
2021/12/21 14:53:29;;;;;;;15.10;8.67;;;2.50;99.90;;;;;;5027014;28;20310;-80
2021/12/21 14:55:56;;;;;;;17.67;7.90;;;2.50;99.90;;;;;;5025668;28;20254;-79
2021/12/21 14:58:23;;;;;;;15.83;9.50;;;2.50;99.90;;;;;;5026114;28;20203;-80
2021/12/21 15:00:53;;;;;;;16.93;9.13;;;2.50;99.90;;;;;;5027267;28;20210;-80
2021/12/21 15:03:21;;;;;;;13.73;8.63;;;2.50;99.90;;;;;;5026774;28;20203;-79
2021/12/21 15:05:50;;;;;;;17.77;9.13;;;2.40;99.90;;;;;;5026062;28;20564;-79
2021/12/21 15:08:20;;;;;;;20.07;9.33;;;2.40;99.90;;;;;;5026822;28;20554;-79
2021/12/21 15:10:47;;;;;;;13.60;9.30;;;2.40;99.90;;;;;;5026882;28;20313;-83
2021/12/21 15:13:17;;;;;;;11.70;7.80;;;2.30;99.90;;;;;;5027122;28;20202;-81
2021/12/21 15:15:44;;;;;;;14.53;7.77;;;2.20;99.90;;;;;;5026854;28;20743;-81
2021/12/21 15:18:13;;;;;;;17.03;9.23;;;2.20;99.90;;;;;;5026575;28;20213;-79
2021/12/21 15:20:40;;;;;;;17.30;8.33;;;2.10;99.90;;;;;;5026862;28;20206;-79
2021/12/21 15:23:08;;;;;;;12.90;8.23;;;2.10;99.90;;;;;;5027519;28;20245;-79
2021/12/21 15:25:36;;;;;;;13.67;8.27;;;2.00;99.90;;;;;;5034702;28;20201;-81
2021/12/21 15:28:04;;;;;;;14.33;8.17;;;2.00;99.90;;;;;;5046048;28;20198;-81
2021/12/21 15:30:31;;;;;;;12.33;7.57;;;1.90;99.90;;;;;;5037033;28;20230;-80
2021/12/21 15:32:58;;;;;;;10.60;7.67;;;1.80;99.90;;;;;;5026004;28;20286;-82
2021/12/21 15:35:29;;;;;;;11.63;7.93;;;1.80;99.90;;;;;;5027717;28;20203;-81
2021/12/21 15:37:56;;;;;;;13.03;8.23;;;1.70;99.90;;;;;;5038222;28;20208;-82
2021/12/21 15:40:24;;;;;;;15.50;7.87;;;1.60;99.90;;;;;;5048255;28;20202;-81
2021/12/21 15:42:53;;;;;;;14.23;7.60;;;1.50;99.90;;;;;;5034945;28;20660;-81
2021/12/21 15:45:21;;;;;;;14.47;7.70;;;1.50;99.90;;;;;;5028250;28;20210;-81
2021/12/21 15:47:48;;;;;;;12.20;7.37;;;1.40;99.90;;;;;;5032658;28;20503;-81
2021/12/21 15:50:15;;;;;;;15.53;9.37;;;1.30;99.90;;;;;;5048210;28;20221;-82
2021/12/21 15:52:44;;;;;;;18.77;10.67;;;1.30;99.90;;;;;;5031242;28;20203;-81
2021/12/21 15:55:14;;;;;;;12.90;8.07;;;1.20;99.90;;;;;;5028798;28;20222;-82
2021/12/21 15:57:41;;;;;;;15.90;8.73;;;1.20;99.90;;;;;;5043188;28;20210;-83
2021/12/21 16:00:11;;;;;;;15.57;8.57;;;1.10;99.90;;;;;;5028069;28;20191;-81
2021/12/21 16:02:38;;;;;;;13.97;9.00;;;1.10;99.90;;;;;;5046733;28;21350;-81
2021/12/21 16:05:06;;;;;;;15.60;8.93;;;1.10;99.90;;;;;;5035268;28;20626;-81
2021/12/21 16:07:34;;;;;;;12.13;8.20;;;1.00;99.90;;;;;;5027769;28;20515;-81
2021/12/21 16:10:02;;;;;;;10.87;8.30;;;1.00;99.90;;;;;;5028443;28;20239;-82
2021/12/21 16:12:29;;;;;;;9.97;6.53;;;0.90;99.90;;;;;;5028637;28;20203;-83
2021/12/21 16:14:55;;;;;;;12.97;7.37;;;0.90;99.90;;;;;;5028978;28;20199;-83
2021/12/21 16:17:22;;;;;;;11.17;7.30;;;0.90;99.90;;;;;;5030962;28;20217;-83
2021/12/21 16:19:49;;;;;;;16.07;9.90;;;0.80;99.90;;;;;;5047904;28;20610;-82
2021/12/21 16:22:16;;;;;;;12.87;7.47;;;0.70;99.90;;;;;;5032947;28;20554;-82
2021/12/21 16:24:43;;;;;;;11.53;7.23;;;0.70;99.90;;;;;;5027530;28;20203;-81
2021/12/21 16:27:12;;;;;;;11.37;7.53;;;0.70;99.90;;;;;;5027028;28;20198;-82
2021/12/21 16:29:40;;;;;;;11.87;7.63;;;0.70;99.90;;;;;;5028399;28;20233;-81
2021/12/21 16:32:07;;;;;;;11.73;7.83;;;0.60;99.90;;;;;;5031536;28;20241;-79
2021/12/21 16:34:34;;;;;;;13.37;8.50;;;0.60;99.90;;;;;;5035809;28;20206;-81
2021/12/21 16:37:01;;;;;;;16.47;9.53;;;0.60;99.90;;;;;;5030358;28;20205;-80
2021/12/21 16:39:28;;;;;;;12.70;8.23;;;0.60;99.90;;;;;;5030737;28;20203;-82
2021/12/21 16:41:55;;;;;;;17.17;9.00;;;0.60;99.90;;;;;;5031344;28;20211;-84
2021/12/21 16:44:24;;;;;;;13.50;8.90;;;0.50;99.90;;;;;;5035244;28;20892;-82
2021/12/21 16:46:50;;;;;;;13.43;8.00;;;0.50;99.90;;;;;;5053464;28;20206;-82
2021/12/21 16:49:17;;;;;;;13.80;8.57;;;0.50;99.90;;;;;;5052756;28;20669;-84
2021/12/21 16:51:44;;;;;;;12.90;7.97;;;0.40;99.90;;;;;;5050406;28;20510;-83
2021/12/21 16:54:11;;;;;;;16.60;9.33;;;0.40;99.90;;;;;;5042737;28;20214;-84
2021/12/21 16:56:38;;;;;;;19.50;9.93;;;0.40;99.90;;;;;;5032497;28;20593;-83
2021/12/21 16:59:06;;;;;;;18.20;9.73;;;0.30;99.90;;;;;;5032736;28;20207;-81
2021/12/21 17:01:34;;;;;;;15.27;8.73;;;0.30;99.90;;;;;;5029246;28;20205;-80
2021/12/21 17:04:01;;;;;;;14.23;9.53;;;0.30;99.90;;;;;;5027864;28;20608;-80
2021/12/21 17:06:28;;;;;;;15.47;8.33;;;0.30;99.90;;;;;;5029239;28;20199;-81
2021/12/21 17:08:56;;;;;;;18.57;9.47;;;0.20;99.90;;;;;;5037522;28;20199;-81
2021/12/21 17:11:24;;;;;;;13.67;8.77;;;0.20;99.90;;;;;;5033867;28;20946;-80
2021/12/21 17:13:51;;;;;;;16.73;10.37;;;0.20;99.90;;;;;;5031648;28;20329;-80
2021/12/21 17:16:18;;;;;;;13.50;9.63;;;0.10;99.90;;;;;;5046342;28;20784;-79
2021/12/21 17:18:47;;;;;;;15.43;9.83;;;0.10;99.90;;;;;;5030844;28;20206;-82
2021/12/21 17:21:14;;;;;;;17.77;10.47;;;0.10;99.90;;;;;;5031476;28;20206;-82
2021/12/21 17:23:42;;;;;;;17.07;10.70;;;0.00;99.90;;;;;;5044675;28;20721;-81
2021/12/21 17:26:09;;;;;;;15.07;10.40;;;0.00;99.90;;;;;;5050996;28;20890;-82
2021/12/21 17:28:37;;;;;;;16.70;10.23;;;0.00;99.90;;;;;;5042009;28;20237;-81
2021/12/21 17:31:04;;;;;;;15.93;10.20;;;-0.10;99.90;;;;;;5050324;28;20225;-82
2021/12/21 17:33:33;;;;;;;17.67;10.40;;;-0.10;99.90;;;;;;5044504;28;20560;-82
2021/12/21 17:36:08;;;;;;;15.40;10.60;;;-0.10;99.90;;;;;;5030743;28;20297;-81
2021/12/21 17:38:35;;;;;;;16.43;9.87;;;-0.10;99.90;;;;;;5029477;28;20216;-82
2021/12/21 17:41:03;;;;;;;18.60;10.40;;;-0.10;99.90;;;;;;5030438;28;20203;-82
2021/12/21 17:43:30;;;;;;;14.30;11.17;;;-0.20;99.90;;;;;;5030554;28;20206;-82
2021/12/21 17:45:57;;;;;;;19.87;11.90;;;-0.20;99.90;;;;;;5030782;28;20210;-81
2021/12/21 17:48:23;;;;;;;18.43;10.63;;;-0.20;99.90;;;;;;5044819;28;20220;-83
2021/12/21 17:50:50;;;;;;;17.30;11.30;;;-0.20;99.90;;;;;;5047725;28;20222;-83
2021/12/21 17:53:18;;;;;;;17.63;10.93;;;-0.20;99.90;;;;;;5030588;28;20194;-82
2021/12/21 17:55:45;;;;;;;16.27;11.63;;;-0.20;99.90;;;;;;5028610;28;20516;-81
2021/12/21 17:58:12;;;;;;;16.20;11.00;;;-0.30;99.90;;;;;;5029110;28;20206;-80
2021/12/21 18:00:40;;;;;;;20.40;11.43;;;-0.30;99.90;;;;;;5028456;28;20301;-80
2021/12/21 18:03:07;;;;;;;17.93;12.00;;;-0.30;99.90;;;;;;5029073;28;20210;-80
2021/12/21 18:05:34;;;;;;;19.60;11.60;;;-0.30;99.90;;;;;;5028249;28;20205;-80
2021/12/21 18:08:01;;;;;;;22.27;12.47;;;-0.30;99.90;;;;;;5027514;28;20233;-81
2021/12/21 18:10:30;;;;;;;15.00;10.50;;;-0.30;99.90;;;;;;5027984;28;20226;-79
2021/12/21 18:12:58;;;;;;;16.20;10.87;;;-0.30;99.90;;;;;;5028800;28;20206;-79
2021/12/21 18:15:26;;;;;;;21.47;10.80;;;-0.40;99.90;;;;;;5028369;28;20210;-80
2021/12/21 18:17:52;;;;;;;19.80;12.07;;;-0.30;99.90;;;;;;5030927;28;20213;-84
2021/12/21 18:20:19;;;;;;;14.47;9.97;;;-0.40;99.90;;;;;;5030396;28;20206;-83
2021/12/21 18:22:46;;;;;;;18.80;11.27;;;-0.40;99.90;;;;;;5028784;28;20736;-81
2021/12/21 18:25:14;;;;;;;16.97;10.87;;;-0.40;99.90;;;;;;5045861;28;20241;-82
2021/12/21 18:27:43;;;;;;;19.93;11.13;;;-0.40;99.90;;;;;;5048637;28;20606;-81
2021/12/21 18:30:11;;;;;;;15.40;10.00;;;-0.40;99.90;;;;;;5048716;28;20226;-82
2021/12/21 18:32:38;;;;;;;16.00;10.60;;;-0.40;99.90;;;;;;5036094;28;20233;-82
2021/12/21 18:35:06;;;;;;;16.07;10.70;;;-0.50;99.90;;;;;;5030167;28;20206;-82
2021/12/21 18:37:40;;;;;;;17.97;11.50;;;-0.50;99.90;;;;;;5032344;28;20225;-82
2021/12/21 18:40:07;;;;;;;19.60;11.83;;;-0.50;99.90;;;;;;5050122;28;20473;-81
2021/12/21 18:42:34;;;;;;;17.87;11.43;;;-0.60;99.90;;;;;;5047092;28;20209;-82
2021/12/21 18:45:03;;;;;;;18.07;11.63;;;-0.60;99.90;;;;;;5046954;28;20206;-83
2021/12/21 18:47:33;;;;;;;16.97;12.40;;;-0.60;99.90;;;;;;5038366;28;20206;-83
2021/12/21 18:50:01;;;;;;;18.13;11.40;;;-0.70;99.90;;;;;;5050508;28;20222;-82
2021/12/21 18:52:28;;;;;;;20.40;12.93;;;-0.60;99.90;;;;;;5043335;28;20341;-82
2021/12/21 18:54:55;;;;;;;20.03;13.00;;;-0.70;99.90;;;;;;5030841;28;20233;-83
2021/12/21 18:57:22;;;;;;;24.13;13.83;;;-0.70;99.90;;;;;;5046809;28;20194;-83
2021/12/21 23:24:48;;;;;;;21.70;14.13;;;-1.30;99.90;;;;;;5066913;28;20815;-83
2021/12/21 23:27:15;;;;;;;25.50;16.77;;;-1.30;99.90;;;;;;5071206;28;20696;-83
2021/12/21 23:29:42;;;;;;;28.00;16.07;;;-1.40;99.90;;;;;;5050726;28;20221;-83
2021/12/21 23:32:10;;;;;;;21.93;15.23;;;-1.40;99.90;;;;;;5050810;28;20232;-83
2021/12/21 23:34:39;;;;;;;27.27;16.10;;;-1.40;99.90;;;;;;5050405;28;20298;-84
2021/12/21 23:37:06;;;;;;;27.33;15.63;;;-1.40;99.90;;;;;;5050252;28;20863;-83
2021/12/21 23:39:34;;;;;;;27.30;15.97;;;-1.50;99.90;;;;;;5052127;28;20210;-83
2021/12/21 23:42:04;;;;;;;21.67;14.60;;;-1.50;99.90;;;;;;5054756;28;20194;-84
2021/12/21 23:44:31;;;;;;;25.17;15.67;;;-1.50;99.90;;;;;;5052433;28;20538;-83
2021/12/21 23:46:59;;;;;;;21.13;14.00;;;-1.60;99.90;;;;;;5052139;28;20193;-82
2021/12/21 23:49:26;;;;;;;26.97;15.83;;;-1.60;99.90;;;;;;5067901;28;20209;-82
2021/12/21 23:51:53;;;;;;;24.03;14.90;;;-1.70;99.90;;;;;;5072732;28;20243;-81
2021/12/21 23:54:19;;;;;;;25.00;16.13;;;-1.60;99.90;;;;;;5072206;28;20189;-82
2021/12/21 23:56:47;;;;;;;24.97;15.20;;;-1.70;99.90;;;;;;5071535;28;20208;-83
2021/12/21 23:59:16;;;;;;;26.63;17.13;;;-1.70;99.90;;;;;;5061183;28;20614;-83
